Airfield :
LOGIN :

Register | Disclaimer

   EN    FR    IT 

 










Legend :    VFR   Marginal VFR   IFR   Intensive IFR   Very Intensive IFR
Visi :
Ceiling :
>= 8 km
>= 3000ft
5 to 8 km
1000 to 3000 ft
1500m to 5 km
500 to 1000 ft
800 to 1500m
200 to 500 ft
< 800m
< 200 ft
Symbols :   Thunderstorms  Fog  Heavy snow  Heavy precipitations  Wind > 20 kt
SIGMETs :     Misc.  Thunderstorms  Icing  Turbulence  Mountain Waves  Volcanic Ashes






- Airport Elevation : 184 ft
- IATA code : BRU


EBBR - Bruxelles

CURRENT METAR :
  • 130950Z 24012KT 4000 -RADZ BR BKN010 06/04 Q0973 TEMPO 25015G25KT 3500 RADZ

EXPIRED METARs :
  • 130920Z 24013KT 9999 BKN011 06/04 Q0973 TEMPO 25015G25KT 3500 RADZ
  • 130850Z 25013KT 8000 BKN012 06/04 Q0973 TEMPO 25015G25KT 4500 RA
  • 130820Z 25013KT 9999 FEW005 BKN014 06/04 Q0972 TEMPO 25015G25KT 4500 RA
  • 130750Z 26014KT 9999 FEW012 BKN015 06/04 Q0972 TEMPO 25015G25KT 4500 RA
  • 130720Z 24013KT 9999 FEW006 BKN012 06/05 Q0971 TEMPO 25015G25KT 4500 RA

TAF TAF EBBR
Valid from the 13 at 06:00 until the 14 at 12:00 UTC


130500Z 1306/1412 24012KT 9999 SCT012 BKN020
TEMPO 1306/1316 4500 RA SHRA SCT008 BKN014CB
TEMPO 1306/1311 25015G25KT
TEMPO 1311/1316 29018G30KT
PROB30
TEMPO 1316/1320 25015G25KT 4500 SHRA
PROB30
TEMPO 1404/1409 24015G25KT 4500 SHRA



MET'MAP, your aeronautical weather chart ! - Copyright ORBIFLY December 2007 - Disclaimer

ORBIFLY MET'MAP TEAM :

Programming & Development : Alexandra Zaïnal
Concept & original design : Baudouin d'Aumeries
Assistance for programming : Marc-Olivier Méhu
Technical & hardware support : Manuel Goepfert

Contact : metmap@orbifly.com




SOURCES & CREDITS :

   NOAA